sensor_id;sensor_type;location;lat;lon;timestamp;pressure;altitude;pressure_sealevel;temperature;humidity
41886;BME280;27567;43.084;25.616;2023-06-26T00:02:33;97830.41;;;17.30;100.00
41886;BME280;27567;43.084;25.616;2023-06-26T00:05:17;97832.00;;;17.25;100.00
41886;BME280;27567;43.084;25.616;2023-06-26T00:08:01;97841.81;;;17.32;100.00
41886;BME280;27567;43.084;25.616;2023-06-26T00:10:45;97833.13;;;17.30;100.00
41886;BME280;27567;43.084;25.616;2023-06-26T00:13:30;97846.63;;;17.24;100.00
41886;BME280;27567;43.084;25.616;2023-06-26T00:16:14;97840.63;;;17.22;100.00
41886;BME280;27567;43.084;25.616;2023-06-26T00:18:59;97831.72;;;17.27;100.00
41886;BME280;27567;43.084;25.616;2023-06-26T00:21:43;97840.91;;;17.21;100.00
41886;BME280;27567;43.084;25.616;2023-06-26T00:24:31;97823.47;;;17.11;100.00
41886;BME280;27567;43.084;25.616;2023-06-26T00:27:15;97838.44;;;17.19;100.00
41886;BME280;27567;43.084;25.616;2023-06-26T00:29:59;97833.84;;;17.20;100.00
41886;BME280;27567;43.084;25.616;2023-06-26T00:32:43;97834.38;;;17.17;100.00
41886;BME280;27567;43.084;25.616;2023-06-26T00:35:27;97833.03;;;17.19;100.00
41886;BME280;27567;43.084;25.616;2023-06-26T00:38:11;97835.78;;;17.24;100.00
41886;BME280;27567;43.084;25.616;2023-06-26T00:40:55;97834.72;;;17.25;100.00
41886;BME280;27567;43.084;25.616;2023-06-26T00:43:40;97836.03;;;17.23;100.00
41886;BME280;27567;43.084;25.616;2023-06-26T00:46:27;97826.31;;;17.27;100.00
41886;BME280;27567;43.084;25.616;2023-06-26T00:49:11;97834.44;;;17.27;100.00
41886;BME280;27567;43.084;25.616;2023-06-26T00:51:55;97827.66;;;17.24;100.00
41886;BME280;27567;43.084;25.616;2023-06-26T00:54:40;97813.50;;;17.17;100.00
41886;BME280;27567;43.084;25.616;2023-06-26T00:57:24;97821.94;;;17.21;100.00
41886;BME280;27567;43.084;25.616;2023-06-26T01:00:08;97815.44;;;17.22;100.00
41886;BME280;27567;43.084;25.616;2023-06-26T01:02:54;97820.31;;;17.20;100.00
41886;BME280;27567;43.084;25.616;2023-06-26T01:05:42;97808.34;;;17.16;100.00
41886;BME280;27567;43.084;25.616;2023-06-26T01:08:29;97826.53;;;17.20;100.00
41886;BME280;27567;43.084;25.616;2023-06-26T01:11:14;97820.00;;;17.16;100.00
41886;BME280;27567;43.084;25.616;2023-06-26T01:13:59;97828.16;;;17.21;100.00
41886;BME280;27567;43.084;25.616;2023-06-26T01:16:45;97837.09;;;17.22;100.00
41886;BME280;27567;43.084;25.616;2023-06-26T01:19:31;97827.03;;;17.17;100.00
41886;BME280;27567;43.084;25.616;2023-06-26T01:22:36;97840.13;;;17.25;100.00
41886;BME280;27567;43.084;25.616;2023-06-26T01:28:25;97835.22;;;17.22;100.00
41886;BME280;27567;43.084;25.616;2023-06-26T01:31:11;97848.25;;;17.25;100.00
41886;BME280;27567;43.084;25.616;2023-06-26T01:33:57;97840.63;;;17.22;100.00
41886;BME280;27567;43.084;25.616;2023-06-26T01:36:41;97842.28;;;17.23;100.00
41886;BME280;27567;43.084;25.616;2023-06-26T01:39:26;97849.56;;;17.23;100.00
41886;BME280;27567;43.084;25.616;2023-06-26T01:42:10;97853.91;;;17.24;100.00
41886;BME280;27567;43.084;25.616;2023-06-26T01:44:55;97854.97;;;17.23;100.00
41886;BME280;27567;43.084;25.616;2023-06-26T01:47:40;97850.97;;;17.25;100.00
41886;BME280;27567;43.084;25.616;2023-06-26T01:50:28;97851.00;;;17.31;100.00
41886;BME280;27567;43.084;25.616;2023-06-26T01:53:21;97856.16;;;17.32;100.00
41886;BME280;27567;43.084;25.616;2023-06-26T01:56:13;97844.19;;;17.28;100.00
41886;BME280;27567;43.084;25.616;2023-06-26T01:58:57;97846.84;;;17.23;100.00
41886;BME280;27567;43.084;25.616;2023-06-26T02:01:42;97854.47;;;17.26;100.00
41886;BME280;27567;43.084;25.616;2023-06-26T02:04:26;97859.53;;;17.17;100.00
41886;BME280;27567;43.084;25.616;2023-06-26T02:07:10;97858.91;;;17.10;100.00
41886;BME280;27567;43.084;25.616;2023-06-26T02:09:54;97861.97;;;17.13;100.00
41886;BME280;27567;43.084;25.616;2023-06-26T02:12:38;97862.19;;;17.12;100.00
41886;BME280;27567;43.084;25.616;2023-06-26T02:15:22;97851.13;;;17.13;100.00
41886;BME280;27567;43.084;25.616;2023-06-26T02:18:06;97853.50;;;17.10;100.00
41886;BME280;27567;43.084;25.616;2023-06-26T02:20:50;97854.06;;;17.12;100.00
41886;BME280;27567;43.084;25.616;2023-06-26T02:23:34;97854.13;;;17.17;100.00
41886;BME280;27567;43.084;25.616;2023-06-26T02:26:18;97839.78;;;17.17;100.00
41886;BME280;27567;43.084;25.616;2023-06-26T02:29:02;97839.22;;;17.15;100.00
41886;BME280;27567;43.084;25.616;2023-06-26T02:31:46;97837.25;;;17.10;100.00
41886;BME280;27567;43.084;25.616;2023-06-26T02:34:30;97834.31;;;17.11;100.00
41886;BME280;27567;43.084;25.616;2023-06-26T02:37:14;97834.88;;;17.13;100.00
41886;BME280;27567;43.084;25.616;2023-06-26T02:40:00;97830.81;;;17.16;100.00
41886;BME280;27567;43.084;25.616;2023-06-26T02:42:43;97830.59;;;17.23;100.00
41886;BME280;27567;43.084;25.616;2023-06-26T02:45:27;97837.38;;;17.20;100.00
41886;BME280;27567;43.084;25.616;2023-06-26T02:48:11;97844.13;;;17.18;100.00
41886;BME280;27567;43.084;25.616;2023-06-26T02:50:55;97835.94;;;17.12;100.00
41886;BME280;27567;43.084;25.616;2023-06-26T02:53:39;97844.38;;;17.16;100.00
41886;BME280;27567;43.084;25.616;2023-06-26T02:56:23;97838.16;;;17.16;100.00
41886;BME280;27567;43.084;25.616;2023-06-26T02:59:07;97840.06;;;17.20;100.00
41886;BME280;27567;43.084;25.616;2023-06-26T03:01:51;97840.38;;;17.24;100.00
41886;BME280;27567;43.084;25.616;2023-06-26T03:04:35;97839.28;;;17.20;100.00
41886;BME280;27567;43.084;25.616;2023-06-26T03:07:20;97833.84;;;17.20;100.00
41886;BME280;27567;43.084;25.616;2023-06-26T03:10:04;97837.94;;;17.22;100.00
41886;BME280;27567;43.084;25.616;2023-06-26T03:12:49;97843.91;;;17.24;100.00
41886;BME280;27567;43.084;25.616;2023-06-26T03:15:33;97845.22;;;17.22;100.00
41886;BME280;27567;43.084;25.616;2023-06-26T03:18:17;97846.63;;;17.24;100.00
41886;BME280;27567;43.084;25.616;2023-06-26T03:21:01;97848.50;;;17.24;100.00
41886;BME280;27567;43.084;25.616;2023-06-26T03:23:45;97846.56;;;17.19;100.00
41886;BME280;27567;43.084;25.616;2023-06-26T03:26:28;97843.63;;;17.26;100.00
41886;BME280;27567;43.084;25.616;2023-06-26T03:29:12;97852.84;;;17.25;100.00
41886;BME280;27567;43.084;25.616;2023-06-26T03:31:57;97859.13;;;17.31;100.00
41886;BME280;27567;43.084;25.616;2023-06-26T03:34:41;97855.81;;;17.23;100.00
41886;BME280;27567;43.084;25.616;2023-06-26T03:37:25;97858.88;;;17.32;100.00
41886;BME280;27567;43.084;25.616;2023-06-26T03:40:09;97855.53;;;17.25;100.00
41886;BME280;27567;43.084;25.616;2023-06-26T03:42:53;97851.75;;;17.26;100.00
41886;BME280;27567;43.084;25.616;2023-06-26T03:45:37;97849.41;;;17.35;100.00
41886;BME280;27567;43.084;25.616;2023-06-26T03:48:21;97846.91;;;17.28;100.00
41886;BME280;27567;43.084;25.616;2023-06-26T03:51:06;97854.97;;;17.23;100.00
41886;BME280;27567;43.084;25.616;2023-06-26T03:53:51;97861.06;;;17.35;100.00
41886;BME280;27567;43.084;25.616;2023-06-26T03:56:35;97864.78;;;17.29;100.00
41886;BME280;27567;43.084;25.616;2023-06-26T03:59:19;97859.44;;;17.34;100.00
41886;BME280;27567;43.084;25.616;2023-06-26T04:02:03;97860.84;;;17.42;100.00
41886;BME280;27567;43.084;25.616;2023-06-26T04:04:47;97851.59;;;17.38;100.00
41886;BME280;27567;43.084;25.616;2023-06-26T04:07:31;97857.00;;;17.33;100.00
41886;BME280;27567;43.084;25.616;2023-06-26T04:10:15;97849.63;;;17.28;100.00
41886;BME280;27567;43.084;25.616;2023-06-26T04:12:59;97854.78;;;17.30;100.00
41886;BME280;27567;43.084;25.616;2023-06-26T04:15:43;97848.09;;;17.37;100.00
41886;BME280;27567;43.084;25.616;2023-06-26T04:18:26;97858.75;;;17.49;100.00
41886;BME280;27567;43.084;25.616;2023-06-26T04:21:12;97860.69;;;17.54;100.00
41886;BME280;27567;43.084;25.616;2023-06-26T04:23:56;97847.13;;;17.54;100.00
41886;BME280;27567;43.084;25.616;2023-06-26T04:26:40;97854.19;;;17.55;100.00
41886;BME280;27567;43.084;25.616;2023-06-26T04:29:29;97851.13;;;17.46;100.00
41886;BME280;27567;43.084;25.616;2023-06-26T04:32:13;97851.75;;;17.53;100.00
41886;BME280;27567;43.084;25.616;2023-06-26T04:34:57;97856.38;;;17.58;100.00
41886;BME280;27567;43.084;25.616;2023-06-26T04:37:41;97849.78;;;17.49;100.00
41886;BME280;27567;43.084;25.616;2023-06-26T04:40:28;97850.63;;;17.49;100.00
41886;BME280;27567;43.084;25.616;2023-06-26T04:43:12;97845.19;;;17.49;100.00
41886;BME280;27567;43.084;25.616;2023-06-26T04:45:56;97852.03;;;17.57;100.00
41886;BME280;27567;43.084;25.616;2023-06-26T04:48:41;97862.41;;;17.65;100.00
41886;BME280;27567;43.084;25.616;2023-06-26T04:51:25;97859.41;;;17.67;100.00
41886;BME280;27567;43.084;25.616;2023-06-26T04:54:11;97862.16;;;17.72;100.00
41886;BME280;27567;43.084;25.616;2023-06-26T04:56:55;97863.28;;;17.76;100.00
41886;BME280;27567;43.084;25.616;2023-06-26T04:59:40;97872.00;;;17.83;100.00
41886;BME280;27567;43.084;25.616;2023-06-26T05:02:24;97870.13;;;17.84;100.00
41886;BME280;27567;43.084;25.616;2023-06-26T05:05:10;97887.00;;;17.96;100.00
41886;BME280;27567;43.084;25.616;2023-06-26T05:07:56;97888.16;;;18.00;100.00
41886;BME280;27567;43.084;25.616;2023-06-26T05:10:40;97891.78;;;18.16;100.00
41886;BME280;27567;43.084;25.616;2023-06-26T05:13:25;97891.69;;;18.06;100.00
41886;BME280;27567;43.084;25.616;2023-06-26T05:16:09;97897.59;;;17.98;100.00
41886;BME280;27567;43.084;25.616;2023-06-26T05:18:53;97894.34;;;17.96;100.00
41886;BME280;27567;43.084;25.616;2023-06-26T05:21:39;97903.94;;;18.09;100.00
41886;BME280;27567;43.084;25.616;2023-06-26T05:24:24;97902.63;;;18.16;100.00
41886;BME280;27567;43.084;25.616;2023-06-26T05:27:09;97908.41;;;17.93;100.00
41886;BME280;27567;43.084;25.616;2023-06-26T05:29:54;97906.66;;;18.09;100.00
41886;BME280;27567;43.084;25.616;2023-06-26T05:32:39;97915.03;;;18.07;100.00
41886;BME280;27567;43.084;25.616;2023-06-26T05:35:24;97909.97;;;18.16;100.00
41886;BME280;27567;43.084;25.616;2023-06-26T05:38:13;97927.50;;;18.03;100.00
41886;BME280;27567;43.084;25.616;2023-06-26T05:40:57;97919.25;;;17.93;100.00
41886;BME280;27567;43.084;25.616;2023-06-26T05:43:42;97922.81;;;17.93;100.00
41886;BME280;27567;43.084;25.616;2023-06-26T05:46:27;97921.28;;;18.08;100.00
41886;BME280;27567;43.084;25.616;2023-06-26T05:49:13;97921.03;;;18.09;100.00
41886;BME280;27567;43.084;25.616;2023-06-26T05:51:57;97920.81;;;18.21;100.00
41886;BME280;27567;43.084;25.616;2023-06-26T05:54:42;97920.06;;;18.26;100.00
41886;BME280;27567;43.084;25.616;2023-06-26T05:57:27;97918.44;;;18.30;100.00
41886;BME280;27567;43.084;25.616;2023-06-26T06:00:12;97929.50;;;18.66;100.00
41886;BME280;27567;43.084;25.616;2023-06-26T06:02:57;97918.91;;;18.70;100.00
41886;BME280;27567;43.084;25.616;2023-06-26T06:05:41;97918.19;;;18.90;100.00
41886;BME280;27567;43.084;25.616;2023-06-26T06:08:24;97918.97;;;18.90;100.00
41886;BME280;27567;43.084;25.616;2023-06-26T06:11:09;97912.34;;;19.40;100.00
41886;BME280;27567;43.084;25.616;2023-06-26T06:13:53;97907.22;;;19.79;100.00
41886;BME280;27567;43.084;25.616;2023-06-26T06:16:40;97900.16;;;20.04;100.00
41886;BME280;27567;43.084;25.616;2023-06-26T06:19:24;97894.53;;;20.66;100.00
41886;BME280;27567;43.084;25.616;2023-06-26T06:22:08;97892.66;;;20.51;100.00
41886;BME280;27567;43.084;25.616;2023-06-26T06:24:52;97897.13;;;20.21;100.00
41886;BME280;27567;43.084;25.616;2023-06-26T06:27:36;97892.50;;;20.98;100.00
41886;BME280;27567;43.084;25.616;2023-06-26T06:30:20;97890.53;;;21.48;100.00
41886;BME280;27567;43.084;25.616;2023-06-26T06:33:05;97889.28;;;21.36;100.00
41886;BME280;27567;43.084;25.616;2023-06-26T06:35:48;97896.97;;;21.68;100.00
41886;BME280;27567;43.084;25.616;2023-06-26T06:38:32;97894.09;;;22.13;100.00
41886;BME280;27567;43.084;25.616;2023-06-26T06:41:16;97883.19;;;22.13;100.00
41886;BME280;27567;43.084;25.616;2023-06-26T06:44:00;97879.00;;;21.97;100.00
41886;BME280;27567;43.084;25.616;2023-06-26T06:46:44;97878.28;;;22.64;100.00
41886;BME280;27567;43.084;25.616;2023-06-26T06:49:28;97883.81;;;22.34;100.00
41886;BME280;27567;43.084;25.616;2023-06-26T06:52:12;97886.19;;;22.41;100.00
41886;BME280;27567;43.084;25.616;2023-06-26T06:54:57;97881.75;;;22.70;100.00
41886;BME280;27567;43.084;25.616;2023-06-26T06:57:49;97887.22;;;23.51;100.00
41886;BME280;27567;43.084;25.616;2023-06-26T07:00:34;97888.59;;;23.68;100.00
41886;BME280;27567;43.084;25.616;2023-06-26T07:03:18;97883.63;;;23.70;100.00
41886;BME280;27567;43.084;25.616;2023-06-26T07:06:02;97895.09;;;22.95;100.00
41886;BME280;27567;43.084;25.616;2023-06-26T07:08:47;97896.47;;;22.74;100.00
41886;BME280;27567;43.084;25.616;2023-06-26T07:11:34;97901.22;;;22.87;100.00
41886;BME280;27567;43.084;25.616;2023-06-26T07:14:18;97897.53;;;22.54;100.00
41886;BME280;27567;43.084;25.616;2023-06-26T07:17:02;97903.78;;;23.41;100.00
41886;BME280;27567;43.084;25.616;2023-06-26T07:19:47;97901.94;;;23.89;100.00
41886;BME280;27567;43.084;25.616;2023-06-26T07:22:31;97903.03;;;22.73;100.00
41886;BME280;27567;43.084;25.616;2023-06-26T07:25:15;97901.75;;;23.08;100.00
41886;BME280;27567;43.084;25.616;2023-06-26T07:27:59;97905.19;;;23.38;100.00
41886;BME280;27567;43.084;25.616;2023-06-26T07:30:43;97903.00;;;23.74;100.00
41886;BME280;27567;43.084;25.616;2023-06-26T07:33:27;97907.47;;;23.50;100.00
41886;BME280;27567;43.084;25.616;2023-06-26T07:36:12;97911.59;;;23.67;100.00
41886;BME280;27567;43.084;25.616;2023-06-26T07:38:56;97908.66;;;23.44;100.00
41886;BME280;27567;43.084;25.616;2023-06-26T07:41:40;97913.66;;;23.18;100.00
41886;BME280;27567;43.084;25.616;2023-06-26T07:44:25;97908.38;;;23.26;100.00
41886;BME280;27567;43.084;25.616;2023-06-26T07:47:09;97919.66;;;23.20;100.00
41886;BME280;27567;43.084;25.616;2023-06-26T07:49:54;97916.28;;;23.47;100.00
41886;BME280;27567;43.084;25.616;2023-06-26T07:52:38;97924.50;;;23.99;100.00
41886;BME280;27567;43.084;25.616;2023-06-26T07:55:22;97923.44;;;23.43;100.00
41886;BME280;27567;43.084;25.616;2023-06-26T07:58:07;97922.22;;;24.21;100.00
41886;BME280;27567;43.084;25.616;2023-06-26T08:00:51;97929.97;;;23.99;100.00
41886;BME280;27567;43.084;25.616;2023-06-26T08:03:34;97930.75;;;24.33;100.00
41886;BME280;27567;43.084;25.616;2023-06-26T08:06:18;97923.88;;;24.36;100.00
41886;BME280;27567;43.084;25.616;2023-06-26T08:09:02;97938.38;;;24.64;100.00
41886;BME280;27567;43.084;25.616;2023-06-26T08:11:48;97935.53;;;24.69;100.00
41886;BME280;27567;43.084;25.616;2023-06-26T08:14:33;97941.81;;;25.62;100.00
41886;BME280;27567;43.084;25.616;2023-06-26T08:17:17;97936.19;;;24.94;100.00
41886;BME280;27567;43.084;25.616;2023-06-26T08:20:01;97943.81;;;25.48;100.00
41886;BME280;27567;43.084;25.616;2023-06-26T08:22:45;97942.66;;;25.86;100.00
41886;BME280;27567;43.084;25.616;2023-06-26T08:25:31;97938.97;;;25.17;100.00
41886;BME280;27567;43.084;25.616;2023-06-26T08:28:15;97940.03;;;24.93;100.00
41886;BME280;27567;43.084;25.616;2023-06-26T08:30:59;97936.28;;;25.54;100.00
41886;BME280;27567;43.084;25.616;2023-06-26T08:33:43;97936.28;;;25.54;100.00
41886;BME280;27567;43.084;25.616;2023-06-26T08:36:28;97931.81;;;26.75;100.00
41886;BME280;27567;43.084;25.616;2023-06-26T08:39:11;97927.56;;;27.09;100.00
41886;BME280;27567;43.084;25.616;2023-06-26T08:41:55;97938.75;;;27.30;100.00
41886;BME280;27567;43.084;25.616;2023-06-26T08:44:39;97929.56;;;26.37;100.00
41886;BME280;27567;43.084;25.616;2023-06-26T08:47:24;97927.22;;;26.53;100.00
41886;BME280;27567;43.084;25.616;2023-06-26T08:50:10;97937.53;;;26.88;100.00
41886;BME280;27567;43.084;25.616;2023-06-26T08:53:23;97929.19;;;27.45;100.00
41886;BME280;27567;43.084;25.616;2023-06-26T08:56:13;97937.56;;;27.05;100.00
41886;BME280;27567;43.084;25.616;2023-06-26T08:58:58;97930.56;;;26.81;100.00
41886;BME280;27567;43.084;25.616;2023-06-26T09:01:42;97934.38;;;26.31;100.00
41886;BME280;27567;43.084;25.616;2023-06-26T09:04:27;97932.53;;;26.18;100.00
41886;BME280;27567;43.084;25.616;2023-06-26T09:07:11;97942.03;;;27.59;100.00
41886;BME280;27567;43.084;25.616;2023-06-26T09:09:55;97933.06;;;27.36;100.00
41886;BME280;27567;43.084;25.616;2023-06-26T09:12:39;97937.63;;;27.93;100.00
41886;BME280;27567;43.084;25.616;2023-06-26T09:15:23;97941.34;;;27.88;100.00
41886;BME280;27567;43.084;25.616;2023-06-26T09:18:07;97939.69;;;28.70;100.00
41886;BME280;27567;43.084;25.616;2023-06-26T09:20:51;97937.78;;;27.97;100.00
41886;BME280;27567;43.084;25.616;2023-06-26T09:23:39;97944.91;;;28.07;100.00
41886;BME280;27567;43.084;25.616;2023-06-26T09:26:23;97939.47;;;28.45;100.00
41886;BME280;27567;43.084;25.616;2023-06-26T09:29:08;97942.38;;;28.88;100.00
41886;BME280;27567;43.084;25.616;2023-06-26T09:31:52;97942.09;;;29.41;100.00
41886;BME280;27567;43.084;25.616;2023-06-26T09:34:36;97941.44;;;29.14;100.00
41886;BME280;27567;43.084;25.616;2023-06-26T09:37:20;97937.88;;;28.83;100.00
41886;BME280;27567;43.084;25.616;2023-06-26T09:40:05;97926.78;;;27.70;100.00
41886;BME280;27567;43.084;25.616;2023-06-26T09:42:50;97933.69;;;28.68;100.00
41886;BME280;27567;43.084;25.616;2023-06-26T09:45:35;97932.69;;;28.34;100.00
41886;BME280;27567;43.084;25.616;2023-06-26T09:48:22;97929.66;;;26.23;100.00
41886;BME280;27567;43.084;25.616;2023-06-26T09:51:06;97924.50;;;26.21;100.00
41886;BME280;27567;43.084;25.616;2023-06-26T09:53:50;97934.69;;;26.07;100.00
41886;BME280;27567;43.084;25.616;2023-06-26T09:56:35;97930.50;;;26.73;100.00
41886;BME280;27567;43.084;25.616;2023-06-26T09:59:19;97933.75;;;26.75;100.00
41886;BME280;27567;43.084;25.616;2023-06-26T10:02:03;97939.44;;;27.54;100.00
41886;BME280;27567;43.084;25.616;2023-06-26T10:04:47;97940.53;;;28.14;100.00
41886;BME280;27567;43.084;25.616;2023-06-26T10:07:32;97930.59;;;28.31;100.00
41886;BME280;27567;43.084;25.616;2023-06-26T10:10:19;97920.47;;;28.53;100.00
41886;BME280;27567;43.084;25.616;2023-06-26T10:13:12;97915.28;;;27.95;100.00
41886;BME280;27567;43.084;25.616;2023-06-26T10:16:00;97908.28;;;26.92;100.00
41886;BME280;27567;43.084;25.616;2023-06-26T10:18:45;97911.41;;;27.43;100.00
41886;BME280;27567;43.084;25.616;2023-06-26T10:21:29;97907.53;;;29.13;100.00
41886;BME280;27567;43.084;25.616;2023-06-26T10:24:16;97903.97;;;28.74;100.00
41886;BME280;27567;43.084;25.616;2023-06-26T10:27:08;97914.47;;;27.77;100.00
41886;BME280;27567;43.084;25.616;2023-06-26T10:29:56;97912.22;;;26.05;100.00
41886;BME280;27567;43.084;25.616;2023-06-26T10:32:42;97909.25;;;24.54;100.00
41886;BME280;27567;43.084;25.616;2023-06-26T10:35:27;97905.50;;;24.50;100.00
41886;BME280;27567;43.084;25.616;2023-06-26T10:38:11;97906.53;;;25.70;100.00
41886;BME280;27567;43.084;25.616;2023-06-26T10:40:55;97893.41;;;25.89;100.00
41886;BME280;27567;43.084;25.616;2023-06-26T10:43:39;97907.09;;;25.80;100.00
41886;BME280;27567;43.084;25.616;2023-06-26T10:46:24;97906.13;;;24.75;100.00
41886;BME280;27567;43.084;25.616;2023-06-26T10:49:12;97895.69;;;27.17;100.00
41886;BME280;27567;43.084;25.616;2023-06-26T10:52:00;97891.41;;;31.65;100.00
41886;BME280;27567;43.084;25.616;2023-06-26T10:54:45;97882.16;;;35.88;100.00
41886;BME280;27567;43.084;25.616;2023-06-26T10:57:29;97882.03;;;37.23;100.00
41886;BME280;27567;43.084;25.616;2023-06-26T11:00:14;97876.00;;;35.72;100.00
41886;BME280;27567;43.084;25.616;2023-06-26T11:02:58;97870.91;;;31.98;100.00
41886;BME280;27567;43.084;25.616;2023-06-26T11:05:44;97878.06;;;31.42;100.00
41886;BME280;27567;43.084;25.616;2023-06-26T11:08:51;97873.44;;;32.83;100.00
41886;BME280;27567;43.084;25.616;2023-06-26T11:14:35;97869.50;;;35.60;100.00
41886;BME280;27567;43.084;25.616;2023-06-26T11:17:19;97867.81;;;33.94;100.00
41886;BME280;27567;43.084;25.616;2023-06-26T11:20:07;97863.88;;;32.01;100.00
41886;BME280;27567;43.084;25.616;2023-06-26T11:22:52;97862.97;;;33.32;100.00
41886;BME280;27567;43.084;25.616;2023-06-26T11:25:38;97864.84;;;35.72;100.00
41886;BME280;27567;43.084;25.616;2023-06-26T11:28:22;97874.63;;;34.43;100.00
41886;BME280;27567;43.084;25.616;2023-06-26T11:31:06;97867.50;;;31.32;100.00
41886;BME280;27567;43.084;25.616;2023-06-26T11:33:50;97866.44;;;29.88;100.00
41886;BME280;27567;43.084;25.616;2023-06-26T11:36:34;97864.38;;;28.87;100.00
41886;BME280;27567;43.084;25.616;2023-06-26T11:39:20;97862.88;;;28.21;100.00
41886;BME280;27567;43.084;25.616;2023-06-26T11:42:04;97851.75;;;28.00;100.00
41886;BME280;27567;43.084;25.616;2023-06-26T11:44:48;97855.78;;;28.50;100.00
41886;BME280;27567;43.084;25.616;2023-06-26T11:47:33;97859.91;;;28.65;100.00
41886;BME280;27567;43.084;25.616;2023-06-26T11:50:17;97851.22;;;28.07;100.00
41886;BME280;27567;43.084;25.616;2023-06-26T11:53:01;97850.72;;;28.22;100.00
41886;BME280;27567;43.084;25.616;2023-06-26T11:55:46;97845.13;;;32.94;100.00
41886;BME280;27567;43.084;25.616;2023-06-26T11:58:30;97842.72;;;37.79;100.00
41886;BME280;27567;43.084;25.616;2023-06-26T12:01:16;97845.19;;;38.13;96.53
41886;BME280;27567;43.084;25.616;2023-06-26T12:04:02;97843.88;;;39.08;91.62
41886;BME280;27567;43.084;25.616;2023-06-26T12:06:52;97834.72;;;37.74;94.96
41886;BME280;27567;43.084;25.616;2023-06-26T12:09:47;97837.81;;;40.94;78.09
41886;BME280;27567;43.084;25.616;2023-06-26T12:12:35;97822.69;;;41.19;73.12
41886;BME280;27567;43.084;25.616;2023-06-26T12:15:19;97816.34;;;40.31;82.23
41886;BME280;27567;43.084;25.616;2023-06-26T12:18:10;97814.97;;;40.04;75.54
41886;BME280;27567;43.084;25.616;2023-06-26T12:20:54;97821.19;;;36.88;96.25
41886;BME280;27567;43.084;25.616;2023-06-26T12:23:39;97820.63;;;34.75;100.00
41886;BME280;27567;43.084;25.616;2023-06-26T12:26:25;97826.06;;;33.12;100.00
41886;BME280;27567;43.084;25.616;2023-06-26T12:29:11;97816.44;;;32.70;100.00
41886;BME280;27567;43.084;25.616;2023-06-26T12:31:56;97822.94;;;31.66;100.00
41886;BME280;27567;43.084;25.616;2023-06-26T12:34:40;97823.81;;;31.54;100.00
41886;BME280;27567;43.084;25.616;2023-06-26T12:37:24;97833.69;;;29.98;100.00
41886;BME280;27567;43.084;25.616;2023-06-26T12:40:18;97830.38;;;29.72;100.00
41886;BME280;27567;43.084;25.616;2023-06-26T12:43:05;97828.91;;;30.57;100.00
41886;BME280;27567;43.084;25.616;2023-06-26T12:45:54;97827.47;;;32.50;100.00
41886;BME280;27567;43.084;25.616;2023-06-26T12:48:39;97809.00;;;31.62;100.00
41886;BME280;27567;43.084;25.616;2023-06-26T12:51:31;97863.13;;;26.03;100.00
41886;BME280;27567;43.084;25.616;2023-06-26T12:54:15;97895.16;;;23.34;100.00
41886;BME280;27567;43.084;25.616;2023-06-26T12:56:59;97869.28;;;21.45;100.00
41886;BME280;27567;43.084;25.616;2023-06-26T12:59:43;97896.53;;;20.35;100.00
41886;BME280;27567;43.084;25.616;2023-06-26T13:02:27;97901.78;;;19.90;100.00
41886;BME280;27567;43.084;25.616;2023-06-26T13:05:11;97891.16;;;19.42;100.00
41886;BME280;27567;43.084;25.616;2023-06-26T13:07:55;97912.06;;;19.26;100.00
41886;BME280;27567;43.084;25.616;2023-06-26T13:10:40;97911.50;;;19.13;100.00
41886;BME280;27567;43.084;25.616;2023-06-26T13:13:24;97928.75;;;18.91;100.00
41886;BME280;27567;43.084;25.616;2023-06-26T13:16:08;97952.56;;;18.69;100.00
41886;BME280;27567;43.084;25.616;2023-06-26T13:18:52;97963.84;;;18.45;100.00
41886;BME280;27567;43.084;25.616;2023-06-26T13:21:36;97965.06;;;18.22;100.00
41886;BME280;27567;43.084;25.616;2023-06-26T13:24:20;97963.34;;;18.10;100.00
41886;BME280;27567;43.084;25.616;2023-06-26T13:27:05;97964.47;;;18.14;100.00
41886;BME280;27567;43.084;25.616;2023-06-26T13:29:49;97968.00;;;18.15;100.00
41886;BME280;27567;43.084;25.616;2023-06-26T13:32:33;97958.44;;;18.07;100.00
41886;BME280;27567;43.084;25.616;2023-06-26T13:35:17;97961.75;;;18.14;100.00
41886;BME280;27567;43.084;25.616;2023-06-26T13:38:01;97955.09;;;18.32;100.00
41886;BME280;27567;43.084;25.616;2023-06-26T13:40:45;97947.75;;;18.33;100.00
41886;BME280;27567;43.084;25.616;2023-06-26T13:43:29;97946.69;;;18.34;100.00
41886;BME280;27567;43.084;25.616;2023-06-26T13:46:15;97941.31;;;18.44;100.00
41886;BME280;27567;43.084;25.616;2023-06-26T13:48:59;97943.31;;;18.59;100.00
41886;BME280;27567;43.084;25.616;2023-06-26T13:51:43;97931.72;;;18.80;100.00
41886;BME280;27567;43.084;25.616;2023-06-26T13:54:30;97937.00;;;19.02;100.00
41886;BME280;27567;43.084;25.616;2023-06-26T13:57:15;97913.09;;;19.14;100.00
41886;BME280;27567;43.084;25.616;2023-06-26T13:59:58;97923.47;;;19.22;100.00
41886;BME280;27567;43.084;25.616;2023-06-26T14:02:43;97915.81;;;19.14;100.00
41886;BME280;27567;43.084;25.616;2023-06-26T14:05:27;97917.22;;;19.27;100.00
41886;BME280;27567;43.084;25.616;2023-06-26T14:08:12;97910.44;;;19.25;100.00
41886;BME280;27567;43.084;25.616;2023-06-26T14:10:56;97906.91;;;19.24;100.00
41886;BME280;27567;43.084;25.616;2023-06-26T14:13:40;97927.00;;;19.33;100.00
41886;BME280;27567;43.084;25.616;2023-06-26T14:16:25;97920.22;;;19.41;100.00
41886;BME280;27567;43.084;25.616;2023-06-26T14:19:09;97926.50;;;19.42;100.00